createdAt,value
2019-03-17T00:53:50.288Z,2.60
2019-03-17T00:54:50.196Z,2.00
2019-03-17T00:56:43.197Z,1.60
2019-03-17T00:57:43.135Z,1.40
2019-03-17T00:59:36.097Z,1.70
2019-03-17T01:00:36.026Z,1.70
2019-03-17T01:02:28.984Z,1.70
2019-03-17T01:03:28.927Z,1.70
2019-03-17T01:05:21.906Z,1.50
2019-03-17T01:06:21.832Z,1.50
2019-03-17T01:08:14.799Z,1.70
2019-03-17T01:09:14.743Z,1.60
2019-03-17T01:11:07.695Z,1.60
2019-03-17T01:12:07.622Z,1.80
2019-03-17T01:14:00.593Z,1.50
2019-03-17T01:15:00.540Z,1.70
2019-03-17T01:16:53.506Z,1.90
2019-03-17T01:17:53.435Z,1.80
2019-03-17T01:19:46.407Z,1.70
2019-03-17T01:20:46.347Z,1.70
2019-03-17T01:22:39.657Z,1.60
2019-03-17T01:23:39.588Z,1.60
2019-03-17T01:24:39.686Z,1.50
2019-03-17T01:25:39.482Z,1.40
2019-03-17T01:26:39.433Z,1.70
2019-03-17T01:27:39.399Z,1.60
2019-03-17T01:28:39.333Z,1.50
2019-03-17T01:29:39.486Z,2.00
2019-03-17T01:30:39.232Z,1.60
2019-03-17T01:31:39.188Z,1.70
2019-03-17T01:32:39.148Z,1.40
2019-03-17T01:33:39.083Z,1.70
2019-03-17T01:34:39.191Z,1.70
2019-03-17T01:35:38.977Z,1.50
2019-03-17T01:36:38.927Z,1.90
2019-03-17T01:37:38.894Z,1.80
2019-03-17T01:38:38.828Z,1.80
2019-03-17T01:39:38.986Z,1.70
2019-03-17T01:40:38.724Z,1.70
2019-03-17T01:41:38.680Z,1.50
2019-03-17T01:42:38.632Z,1.50
2019-03-17T01:43:38.575Z,1.50
2019-03-17T01:44:38.703Z,1.40
2019-03-17T01:45:38.469Z,1.70
2019-03-17T01:46:38.420Z,1.70
2019-03-17T01:47:38.388Z,1.70
2019-03-17T01:48:38.322Z,1.60
2019-03-17T01:49:38.502Z,1.70
2019-03-17T01:50:38.219Z,1.70
2019-03-17T01:51:38.167Z,1.60
2019-03-17T01:52:38.117Z,1.70
2019-03-17T01:53:38.067Z,1.70
2019-03-17T01:54:38.210Z,1.60
2019-03-17T01:55:37.968Z,1.70
2019-03-17T01:56:37.916Z,1.80
2019-03-17T01:57:37.881Z,1.70
2019-03-17T01:58:37.813Z,1.60
2019-03-17T01:59:37.906Z,1.60
2019-03-17T02:00:37.723Z,1.60
2019-03-17T02:01:37.661Z,1.90
2019-03-17T02:02:37.632Z,1.60
2019-03-17T02:03:37.558Z,1.50
2019-03-17T02:04:37.702Z,1.60
2019-03-17T02:05:37.457Z,1.50
2019-03-17T02:06:37.409Z,1.60
2019-03-17T02:07:37.378Z,1.40
2019-03-17T02:08:37.303Z,1.40
2019-03-17T02:09:37.413Z,1.70
2019-03-17T02:10:37.201Z,1.50
2019-03-17T02:11:37.150Z,1.50
2019-03-17T02:12:37.112Z,1.40
2019-03-17T02:13:37.049Z,1.50
2019-03-17T02:14:37.200Z,1.40
2019-03-17T02:15:36.948Z,1.30
2019-03-17T02:16:36.902Z,1.20
2019-03-17T02:17:36.865Z,1.40
2019-03-17T02:18:36.803Z,1.50
2019-03-17T02:19:36.916Z,1.50
2019-03-17T02:20:36.694Z,1.30
2019-03-17T02:21:36.650Z,1.40
2019-03-17T02:22:36.595Z,1.20
2019-03-17T02:23:36.541Z,1.50
2019-03-17T02:24:36.719Z,1.30
2019-03-17T02:25:36.444Z,1.50
2019-03-17T02:26:36.390Z,1.80
2019-03-17T02:27:36.355Z,1.30
2019-03-17T02:28:36.294Z,1.50
2019-03-17T02:29:36.418Z,1.50
2019-03-17T02:30:36.191Z,1.50
2019-03-17T02:31:36.157Z,1.60
2019-03-17T02:32:36.100Z,1.70
2019-03-17T02:33:36.037Z,1.30
2019-03-17T02:34:36.219Z,1.40
2019-03-17T02:35:39.418Z,1.50
2019-03-17T02:36:35.881Z,1.50
2019-03-17T02:37:35.847Z,1.40
2019-03-17T02:38:35.784Z,1.30
2019-03-17T02:39:36.033Z,1.40
2019-03-17T02:40:35.680Z,1.40
2019-03-17T02:41:35.686Z,1.20
2019-03-17T02:42:35.644Z,1.20
2019-03-17T02:43:35.524Z,1.30
2019-03-17T02:44:35.623Z,1.50
2019-03-17T02:45:35.431Z,1.20
2019-03-17T02:46:35.370Z,1.10
2019-03-17T02:47:35.336Z,1.30
2019-03-17T02:48:35.270Z,1.30
2019-03-17T02:49:35.423Z,1.10
2019-03-17T02:50:35.167Z,1.10
2019-03-17T02:51:35.123Z,1.20
2019-03-17T02:52:35.071Z,1.10
2019-03-17T02:53:35.022Z,1.40
2019-03-17T02:54:35.140Z,1.40
2019-03-17T02:55:34.913Z,1.20
2019-03-17T02:56:34.874Z,1.40
2019-03-17T02:57:34.832Z,1.30
2019-03-17T02:58:34.760Z,1.10
2019-03-17T02:59:34.947Z,1.20
2019-03-17T03:00:34.662Z,1.20
2019-03-17T03:01:34.611Z,1.00
2019-03-17T03:02:34.574Z,1.30
2019-03-17T03:03:34.510Z,1.20
2019-03-17T03:04:34.635Z,1.10
2019-03-17T03:05:34.403Z,1.10
2019-03-17T03:06:34.364Z,1.20
2019-03-17T03:07:34.313Z,1.20
2019-03-17T03:08:34.253Z,1.00
2019-03-17T03:09:34.444Z,1.00
2019-03-17T03:10:34.150Z,1.00
2019-03-17T03:11:34.096Z,1.20
2019-03-17T03:12:34.046Z,1.40
2019-03-17T03:13:34.003Z,1.00
2019-03-17T03:14:33.964Z,1.10
2019-03-17T03:15:33.891Z,1.20
2019-03-17T03:16:34.041Z,1.10
2019-03-17T03:17:33.794Z,1.10
2019-03-17T03:18:33.737Z,1.20
2019-03-17T03:19:33.703Z,1.00
2019-03-17T03:20:33.634Z,1.20
2019-03-17T03:21:33.748Z,1.10
2019-03-17T03:22:33.533Z,1.30
2019-03-17T03:23:33.482Z,1.10
2019-03-17T03:24:33.447Z,1.20
2019-03-17T03:25:33.379Z,1.00
2019-03-17T03:26:33.537Z,1.00
2019-03-17T03:27:33.391Z,1.20
2019-03-17T03:28:33.231Z,1.20
2019-03-17T03:29:33.191Z,1.10
2019-03-17T03:30:33.128Z,0.90
2019-03-17T03:31:33.359Z,1.00
2019-03-17T03:32:33.035Z,1.10
2019-03-17T03:33:32.986Z,1.00
2019-03-17T03:34:32.990Z,1.00
2019-03-17T03:35:32.866Z,1.10
2019-03-17T03:36:33.052Z,1.00
2019-03-17T03:37:32.763Z,1.10
2019-03-17T03:38:32.713Z,1.10
2019-03-17T03:39:32.681Z,1.10
2019-03-17T03:40:32.611Z,1.00
2019-03-17T03:41:32.759Z,1.10
2019-03-17T03:42:32.508Z,0.90
2019-03-17T03:43:32.482Z,1.00
2019-03-17T03:44:32.429Z,0.80
2019-03-17T03:45:32.354Z,0.90
2019-03-17T03:46:32.458Z,0.90
2019-03-17T03:47:32.253Z,0.90
2019-03-17T03:48:32.209Z,0.90
2019-03-17T03:49:32.165Z,1.10
2019-03-17T03:50:32.130Z,0.90
2019-03-17T03:51:32.262Z,0.80
2019-03-17T03:52:31.998Z,0.90
2019-03-17T03:53:31.947Z,1.00
2019-03-17T03:54:31.915Z,1.00
2019-03-17T03:55:31.844Z,1.20
2019-03-17T03:56:31.950Z,0.90
2019-03-17T03:57:31.741Z,0.90
2019-03-17T03:58:31.691Z,1.00
2019-03-17T03:59:31.660Z,0.90
2019-03-17T04:00:31.598Z,0.90
2019-03-17T04:01:31.770Z,0.90
2019-03-17T04:02:31.486Z,1.00
2019-03-17T04:03:31.442Z,0.90
2019-03-17T04:04:31.405Z,1.00
2019-03-17T04:05:32.837Z,0.80
2019-03-17T04:06:31.467Z,1.00
2019-03-17T04:07:31.228Z,0.80
2019-03-17T04:08:31.179Z,1.00
2019-03-17T04:09:31.147Z,0.70
2019-03-17T04:10:31.079Z,1.00
2019-03-17T04:11:31.265Z,0.90
2019-03-17T04:12:30.978Z,0.70
2019-03-17T04:13:30.923Z,0.90
2019-03-17T04:14:30.895Z,1.10
2019-03-17T04:15:30.824Z,0.90
2019-03-17T04:16:30.983Z,0.90
2019-03-17T04:17:30.728Z,0.90
2019-03-17T04:18:30.670Z,0.90
2019-03-17T04:19:30.636Z,1.00
2019-03-17T04:20:30.567Z,0.90
2019-03-17T04:21:30.699Z,0.90
2019-03-17T04:22:30.464Z,1.10
2019-03-17T04:23:30.419Z,1.00
2019-03-17T04:24:30.379Z,0.90
2019-03-17T04:25:30.311Z,1.10
2019-03-17T04:26:30.465Z,0.80
2019-03-17T04:27:30.214Z,0.90
2019-03-17T04:28:30.159Z,1.00
2019-03-17T04:29:30.130Z,1.10
2019-03-17T04:30:30.059Z,1.00
2019-03-17T04:31:30.164Z,0.90
2019-03-17T04:32:29.962Z,0.80
2019-03-17T04:33:29.904Z,1.00
2019-03-17T04:34:29.872Z,0.90
2019-03-17T04:35:29.806Z,0.90
2019-03-17T04:36:40.069Z,1.00
2019-03-17T04:37:29.699Z,0.80
2019-03-17T04:38:29.652Z,0.70
2019-03-17T04:39:29.614Z,0.80
2019-03-17T04:40:29.562Z,1.00
2019-03-17T04:41:29.678Z,1.00
2019-03-17T04:42:29.441Z,0.80
2019-03-17T04:43:29.390Z,0.90
2019-03-17T04:44:29.356Z,1.00
2019-03-17T04:45:29.295Z,0.90
2019-03-17T04:46:29.387Z,0.80
2019-03-17T04:47:29.185Z,0.80
2019-03-17T04:48:29.139Z,0.90
2019-03-17T04:49:29.105Z,1.00
2019-03-17T04:50:29.031Z,0.80
2019-03-17T04:51:29.179Z,1.00
2019-03-17T04:52:28.941Z,1.00
2019-03-17T04:53:28.878Z,1.00
2019-03-17T04:54:28.847Z,0.90
2019-03-17T04:55:28.776Z,1.10
2019-03-17T04:56:28.882Z,1.00
2019-03-17T04:57:28.678Z,0.90
2019-03-17T04:58:28.619Z,0.90
2019-03-17T04:59:28.586Z,1.00
2019-03-17T05:00:28.522Z,1.00
2019-03-17T05:01:28.692Z,1.10
2019-03-17T05:02:28.421Z,0.80
2019-03-17T05:03:28.366Z,1.10
2019-03-17T05:04:28.335Z,0.80
2019-03-17T05:05:28.261Z,0.70
2019-03-17T05:06:28.388Z,1.00
2019-03-17T05:07:28.163Z,1.00
2019-03-17T05:08:28.115Z,0.90
2019-03-17T05:09:28.083Z,0.70
2019-03-17T05:10:28.005Z,0.90
2019-03-17T05:11:28.184Z,0.90
2019-03-17T05:12:27.902Z,1.00
2019-03-17T05:13:27.853Z,0.90
2019-03-17T05:14:27.818Z,0.90
2019-03-17T05:15:27.749Z,0.90
2019-03-17T05:16:27.898Z,1.00
2019-03-17T05:17:27.647Z,0.80
2019-03-17T05:18:27.597Z,1.00
2019-03-17T05:19:27.566Z,0.80
2019-03-17T05:20:27.492Z,1.00
2019-03-17T05:21:27.598Z,0.80
2019-03-17T05:22:27.395Z,0.90
2019-03-17T05:23:27.338Z,0.80
2019-03-17T05:24:27.305Z,0.80
2019-03-17T05:25:27.234Z,0.80
2019-03-17T05:26:27.349Z,0.80
2019-03-17T05:27:27.137Z,1.10
2019-03-17T05:28:27.083Z,0.90
2019-03-17T05:29:27.127Z,0.90
2019-03-17T05:30:26.988Z,1.00
2019-03-17T05:31:27.101Z,0.90
2019-03-17T05:32:26.877Z,0.90
2019-03-17T05:33:26.828Z,0.90
2019-03-17T05:34:26.798Z,1.00
2019-03-17T05:35:26.726Z,0.90
2019-03-17T05:36:26.910Z,1.10
2019-03-17T05:37:26.626Z,1.10
2019-03-17T05:38:26.569Z,1.00
2019-03-17T05:39:26.542Z,0.90
2019-03-17T05:40:26.467Z,1.00
2019-03-17T05:41:26.616Z,1.00
2019-03-17T05:42:26.366Z,1.10
2019-03-17T05:43:26.315Z,0.90
2019-03-17T05:44:26.280Z,1.00
2019-03-17T05:45:26.210Z,0.90
2019-03-17T05:46:26.412Z,0.90
2019-03-17T05:47:26.111Z,0.80
2019-03-17T05:48:26.066Z,1.10
2019-03-17T05:49:26.024Z,0.80
2019-03-17T05:50:25.962Z,0.90
2019-03-17T05:51:26.099Z,0.90
2019-03-17T05:52:25.854Z,0.90
2019-03-17T05:53:25.806Z,1.10
2019-03-17T05:54:25.771Z,0.90
2019-03-17T05:55:25.701Z,1.20
2019-03-17T05:56:25.812Z,1.20
2019-03-17T05:57:25.597Z,1.10
2019-03-17T05:58:25.548Z,1.20
2019-03-17T05:59:25.522Z,1.10
2019-03-17T06:00:25.451Z,1.20
2019-03-17T06:01:25.618Z,1.20
2019-03-17T06:02:25.345Z,1.30
2019-03-17T06:03:25.295Z,1.10
2019-03-17T06:04:25.268Z,0.90
2019-03-17T06:05:25.197Z,0.80
2019-03-17T06:06:25.308Z,0.80
2019-03-17T06:07:25.095Z,0.90
2019-03-17T06:08:25.039Z,0.90
2019-03-17T06:09:25.005Z,0.90
2019-03-17T06:10:24.943Z,0.80
2019-03-17T06:11:25.134Z,0.80
2019-03-17T06:12:24.837Z,0.90
2019-03-17T06:13:24.792Z,1.00
2019-03-17T06:14:24.754Z,0.90
2019-03-17T06:15:24.685Z,1.10
2019-03-17T06:16:24.824Z,1.00
2019-03-17T06:17:24.587Z,0.80
2019-03-17T06:18:24.532Z,1.10
2019-03-17T06:19:24.501Z,0.90
2019-03-17T06:20:24.433Z,0.90
2019-03-17T06:21:24.622Z,0.90
2019-03-17T06:22:24.337Z,0.90
2019-03-17T06:23:24.287Z,0.90
2019-03-17T06:24:24.253Z,0.80
2019-03-17T06:25:24.185Z,0.90
2019-03-17T06:26:24.322Z,1.00
2019-03-17T06:27:24.084Z,0.90
2019-03-17T06:28:24.030Z,1.00
2019-03-17T06:29:23.996Z,0.90
2019-03-17T06:30:23.935Z,1.00
2019-03-17T06:31:24.036Z,0.90
2019-03-17T06:32:23.829Z,0.90
2019-03-17T06:33:23.788Z,1.00
2019-03-17T06:34:24.444Z,1.00
2019-03-17T06:35:23.697Z,0.80
2019-03-17T06:36:23.835Z,1.10
2019-03-17T06:37:30.979Z,1.10
2019-03-17T06:38:23.531Z,1.00
2019-03-17T06:39:23.499Z,0.90
2019-03-17T06:40:23.429Z,0.70
2019-03-17T06:41:23.528Z,1.00
2019-03-17T06:42:23.329Z,0.90
2019-03-17T06:43:23.279Z,1.00
2019-03-17T06:44:23.250Z,0.90
2019-03-17T06:45:23.184Z,0.90
2019-03-17T06:46:23.347Z,1.20
2019-03-17T06:47:23.081Z,0.90
2019-03-17T06:48:23.032Z,1.00
2019-03-17T06:49:23.042Z,0.90
2019-03-17T06:50:22.933Z,1.00
2019-03-17T06:51:23.041Z,1.00
2019-03-17T06:52:22.840Z,1.10
2019-03-17T06:53:22.784Z,1.00
2019-03-17T06:54:22.754Z,0.90
2019-03-17T06:55:22.687Z,1.00
2019-03-17T06:56:22.842Z,0.90
2019-03-17T06:57:22.585Z,1.00
2019-03-17T06:58:22.538Z,1.00
2019-03-17T06:59:22.511Z,0.90
2019-03-17T07:00:22.445Z,1.10
2019-03-17T07:01:22.552Z,1.00
2019-03-17T07:02:22.339Z,0.90
2019-03-17T07:03:22.296Z,0.90
2019-03-17T07:04:22.265Z,1.10
2019-03-17T07:05:22.192Z,1.00
2019-03-17T07:06:22.347Z,0.80
2019-03-17T07:07:22.095Z,1.00
2019-03-17T07:08:22.046Z,0.90
2019-03-17T07:09:22.016Z,0.90
2019-03-17T07:10:21.953Z,1.00
2019-03-17T07:11:22.038Z,0.80
2019-03-17T07:12:21.848Z,1.20
2019-03-17T07:13:21.800Z,1.10
2019-03-17T07:14:21.770Z,1.20
2019-03-17T07:15:21.702Z,0.90
2019-03-17T07:16:21.848Z,1.10
2019-03-17T07:17:21.610Z,1.10
2019-03-17T07:18:21.556Z,1.00
2019-03-17T07:19:21.528Z,1.10
2019-03-17T07:20:21.463Z,1.10
2019-03-17T07:21:21.644Z,1.00
2019-03-17T07:22:21.361Z,1.30
2019-03-17T07:23:21.312Z,1.00
2019-03-17T07:24:21.282Z,1.10
2019-03-17T07:25:21.218Z,1.00
2019-03-17T07:26:21.361Z,1.10
2019-03-17T07:27:21.119Z,1.00
2019-03-17T07:28:21.071Z,0.90
2019-03-17T07:29:21.042Z,1.20
2019-03-17T07:30:20.971Z,1.00
2019-03-17T07:31:21.154Z,1.20
2019-03-17T07:32:20.877Z,1.30
2019-03-17T07:33:20.828Z,1.00
2019-03-17T07:34:20.802Z,1.10
2019-03-17T07:35:20.731Z,1.20
2019-03-17T07:36:20.859Z,1.00
2019-03-17T07:37:20.640Z,1.20
2019-03-17T07:38:20.594Z,1.90
2019-03-17T07:39:20.556Z,2.10
2019-03-17T07:40:20.495Z,1.20
2019-03-17T07:41:20.662Z,1.50
2019-03-17T07:42:20.396Z,3.20
2019-03-17T07:43:20.358Z,2.80
2019-03-17T07:44:20.317Z,3.00
2019-03-17T07:45:20.348Z,3.00
2019-03-17T07:46:20.314Z,2.10
2019-03-17T07:47:20.154Z,1.30
2019-03-17T07:48:20.116Z,1.20
2019-03-17T07:49:20.077Z,1.20
2019-03-17T07:50:20.012Z,1.00
2019-03-17T07:51:20.157Z,1.60
2019-03-17T07:52:19.917Z,1.50
2019-03-17T07:53:19.867Z,1.60
2019-03-17T07:54:19.844Z,2.30
2019-03-17T07:55:19.778Z,2.40
2019-03-17T07:56:19.876Z,1.60
2019-03-17T07:57:19.681Z,1.40
2019-03-17T07:58:19.629Z,1.30
2019-03-17T07:59:19.604Z,1.30
2019-03-17T08:00:31.203Z,1.30
2019-03-17T08:01:19.492Z,1.30
2019-03-17T08:02:19.440Z,1.20
2019-03-17T08:03:19.568Z,1.20
2019-03-17T08:04:19.343Z,1.20
2019-03-17T08:05:19.293Z,1.10
2019-03-17T08:06:19.263Z,1.40
2019-03-17T08:07:19.515Z,1.30
2019-03-17T08:08:19.375Z,1.80
2019-03-17T08:09:19.104Z,2.00
2019-03-17T08:10:19.057Z,2.90
2019-03-17T08:11:19.025Z,2.00
2019-03-17T08:12:18.962Z,1.70
2019-03-17T08:13:18.914Z,1.50
2019-03-17T08:14:18.875Z,1.30
2019-03-17T08:15:18.981Z,1.20
2019-03-17T08:16:18.776Z,1.10
2019-03-17T08:17:18.721Z,1.40
2019-03-17T08:18:18.692Z,1.30
2019-03-17T08:19:18.631Z,1.20
2019-03-17T08:20:18.779Z,1.30
2019-03-17T08:21:18.534Z,1.30
2019-03-17T08:22:18.487Z,1.20
2019-03-17T08:23:18.461Z,1.20
2019-03-17T08:24:18.397Z,1.30
2019-03-17T08:25:18.581Z,1.20
2019-03-17T08:26:18.298Z,1.00
2019-03-17T08:27:18.255Z,1.10
2019-03-17T08:28:18.227Z,1.30
2019-03-17T08:29:18.155Z,1.30
2019-03-17T08:30:18.275Z,1.30
2019-03-17T08:31:18.070Z,1.10
2019-03-17T08:32:18.016Z,1.00
2019-03-17T08:33:18.016Z,1.10
2019-03-17T08:34:17.921Z,1.20
2019-03-17T08:35:18.092Z,1.10
2019-03-17T08:36:17.875Z,1.10
2019-03-17T08:37:17.778Z,1.60
2019-03-17T08:38:22.152Z,1.40
2019-03-17T08:39:17.686Z,1.30
2019-03-17T08:40:17.793Z,1.50
2019-03-17T08:41:17.596Z,1.30
2019-03-17T08:42:17.547Z,1.50
2019-03-17T08:43:17.495Z,1.50
2019-03-17T08:44:17.453Z,1.20
2019-03-17T08:45:17.584Z,1.60
2019-03-17T08:46:17.358Z,1.30
2019-03-17T08:47:17.312Z,1.30
2019-03-17T08:48:17.289Z,1.20
2019-03-17T08:49:17.221Z,1.20
2019-03-17T08:50:17.397Z,1.00
2019-03-17T08:51:17.137Z,1.30
2019-03-17T08:52:17.080Z,1.20
2019-03-17T08:53:17.051Z,1.20
2019-03-17T08:54:16.988Z,1.20
2019-03-17T08:55:17.094Z,1.20
2019-03-17T08:56:16.900Z,1.30
2019-03-17T08:57:16.853Z,1.00
2019-03-17T08:58:16.820Z,1.10
2019-03-17T08:59:16.769Z,1.30
2019-03-17T09:00:16.893Z,1.20
2019-03-17T09:01:16.663Z,1.20
2019-03-17T09:02:16.622Z,1.30
2019-03-17T09:03:16.588Z,1.40
2019-03-17T09:04:16.526Z,1.40
2019-03-17T09:05:16.693Z,1.10
2019-03-17T09:06:16.432Z,1.60
2019-03-17T09:07:16.386Z,1.50
2019-03-17T09:08:16.360Z,1.70
2019-03-17T09:09:16.301Z,1.10
2019-03-17T09:10:16.398Z,1.40
2019-03-17T09:11:16.211Z,1.10
2019-03-17T09:12:16.157Z,1.30
2019-03-17T09:13:16.116Z,1.40
2019-03-17T09:14:16.064Z,1.40
2019-03-17T09:15:16.207Z,1.10
2019-03-17T09:16:15.976Z,1.30
2019-03-17T09:17:15.935Z,1.30
2019-03-17T09:18:15.899Z,1.30
2019-03-17T09:19:15.835Z,1.20
2019-03-17T09:20:15.997Z,1.30
2019-03-17T09:21:15.744Z,1.50
2019-03-17T09:22:15.697Z,1.60
2019-03-17T09:23:15.668Z,1.10
2019-03-17T09:24:17.497Z,1.20
2019-03-17T09:25:15.712Z,1.20
2019-03-17T09:26:15.514Z,1.30
2019-03-17T09:27:15.468Z,1.50
2019-03-17T09:28:15.445Z,1.30
2019-03-17T09:29:15.376Z,1.30
2019-03-17T09:30:15.527Z,1.30
2019-03-17T09:31:15.285Z,1.20
2019-03-17T09:32:15.241Z,1.10
2019-03-17T09:33:15.210Z,1.80
2019-03-17T09:34:15.148Z,1.10
2019-03-17T09:35:15.325Z,1.20
2019-03-17T09:36:15.058Z,1.30
2019-03-17T09:37:15.015Z,1.60
2019-03-17T09:38:14.982Z,1.40
2019-03-17T09:39:14.920Z,1.20
2019-03-17T09:40:15.112Z,1.40
2019-03-17T09:41:14.828Z,1.30
2019-03-17T09:42:14.783Z,1.40
2019-03-17T09:43:14.737Z,1.50
2019-03-17T09:44:14.690Z,1.30
2019-03-17T09:45:14.829Z,1.20
2019-03-17T09:46:14.605Z,1.50
2019-03-17T09:47:14.558Z,1.60
2019-03-17T09:48:14.526Z,1.60
2019-03-17T09:49:14.468Z,1.60
2019-03-17T09:50:14.623Z,1.60
2019-03-17T09:51:14.372Z,1.50
2019-03-17T09:52:14.341Z,1.50
2019-03-17T09:53:14.279Z,1.30
2019-03-17T09:54:14.242Z,1.20
2019-03-17T09:55:14.212Z,1.40
2019-03-17T09:56:14.144Z,1.40
2019-03-17T09:57:14.322Z,1.80
2019-03-17T09:58:14.057Z,1.40
2019-03-17T09:59:14.007Z,1.40
2019-03-17T10:00:13.979Z,1.50
2019-03-17T10:01:13.915Z,1.40
2019-03-17T10:02:14.029Z,1.30
2019-03-17T10:03:13.824Z,1.60
2019-03-17T10:04:13.783Z,1.70
2019-03-17T10:05:13.753Z,1.50
2019-03-17T10:06:13.692Z,1.20
2019-03-17T10:07:13.832Z,1.40
2019-03-17T10:08:13.595Z,1.30
2019-03-17T10:09:13.550Z,1.50
2019-03-17T10:10:13.609Z,1.30
2019-03-17T10:11:13.467Z,1.40
2019-03-17T10:12:13.624Z,1.30
2019-03-17T10:13:13.370Z,1.50
2019-03-17T10:14:13.332Z,1.30
2019-03-17T10:15:13.302Z,1.40
2019-03-17T10:16:13.238Z,1.50
2019-03-17T10:17:13.331Z,1.30
2019-03-17T10:18:13.153Z,1.50
2019-03-17T10:19:13.101Z,1.40
2019-03-17T10:20:13.075Z,1.40
2019-03-17T10:21:13.014Z,1.20
2019-03-17T10:22:13.006Z,1.50
2019-03-17T10:23:12.925Z,1.30
2019-03-17T10:24:13.044Z,1.50
2019-03-17T10:25:12.835Z,1.30
2019-03-17T10:26:12.790Z,1.30
2019-03-17T10:27:12.767Z,1.40
2019-03-17T10:28:12.719Z,1.30
2019-03-17T10:29:12.829Z,1.20
2019-03-17T10:30:12.611Z,1.40
2019-03-17T10:31:12.568Z,1.40
2019-03-17T10:32:12.543Z,1.20
2019-03-17T10:33:12.480Z,1.50
2019-03-17T10:34:12.641Z,1.30
2019-03-17T10:35:12.391Z,1.60
2019-03-17T10:36:12.346Z,1.50
2019-03-17T10:37:12.320Z,1.60
2019-03-17T10:38:12.264Z,1.30
2019-03-17T10:39:12.920Z,1.40
2019-03-17T10:40:12.177Z,1.60
2019-03-17T10:41:12.147Z,1.60
2019-03-17T10:42:12.098Z,1.40
2019-03-17T10:43:12.037Z,1.50
2019-03-17T10:44:12.153Z,1.50
2019-03-17T10:45:11.945Z,1.50
2019-03-17T10:46:11.907Z,1.80
2019-03-17T10:47:11.879Z,1.80
2019-03-17T10:48:11.812Z,1.70
2019-03-17T10:49:11.945Z,1.60
2019-03-17T10:50:11.726Z,1.80
2019-03-17T10:51:11.683Z,1.50
2019-03-17T10:52:11.634Z,1.70
2019-03-17T10:53:11.591Z,1.40
2019-03-17T10:54:14.784Z,1.70
2019-03-17T10:55:11.501Z,1.80
2019-03-17T10:56:11.456Z,1.80
2019-03-17T10:57:11.428Z,1.60
2019-03-17T10:58:11.372Z,1.60
2019-03-17T10:59:11.550Z,1.50
2019-03-17T11:00:11.278Z,1.60
2019-03-17T11:01:11.233Z,1.40
2019-03-17T11:02:11.208Z,1.60
2019-03-17T11:03:11.152Z,1.40
2019-03-17T11:04:11.251Z,1.30
2019-03-17T11:05:11.061Z,1.80
2019-03-17T11:06:11.011Z,1.70
2019-03-17T11:07:10.992Z,1.50
2019-03-17T11:08:10.929Z,1.60
2019-03-17T11:09:11.061Z,1.60
2019-03-17T11:10:10.836Z,1.20
2019-03-17T11:11:12.151Z,1.50
2019-03-17T11:12:10.768Z,1.60
2019-03-17T11:13:10.703Z,1.70
2019-03-17T11:14:10.872Z,1.60
2019-03-17T11:15:10.619Z,1.40
2019-03-17T11:16:10.569Z,1.80
2019-03-17T11:17:10.546Z,1.60
2019-03-17T11:18:10.481Z,1.40
2019-03-17T11:19:10.651Z,1.60
2019-03-17T11:20:10.397Z,1.50
2019-03-17T11:21:10.347Z,1.50
2019-03-17T11:22:10.303Z,1.60
2019-03-17T11:23:10.263Z,1.50
2019-03-17T11:24:10.371Z,1.40
2019-03-17T11:25:10.172Z,1.90
2019-03-17T11:26:10.125Z,1.60
2019-03-17T11:27:10.171Z,1.50
2019-03-17T11:28:10.097Z,1.40
2019-03-17T11:29:10.158Z,1.80
2019-03-17T11:30:09.954Z,1.40
2019-03-17T11:31:09.905Z,1.50
2019-03-17T11:32:09.889Z,1.50
2019-03-17T11:33:09.815Z,1.50
2019-03-17T11:34:09.971Z,1.60
2019-03-17T11:35:09.727Z,1.60
2019-03-17T11:36:09.683Z,1.50
2019-03-17T11:37:09.664Z,1.70
2019-03-17T11:38:09.594Z,1.60
2019-03-17T11:39:09.778Z,1.60
2019-03-17T11:40:09.507Z,1.70
2019-03-17T11:41:09.466Z,1.60
2019-03-17T11:42:09.437Z,1.50
2019-03-17T11:43:09.372Z,1.40
2019-03-17T11:44:09.477Z,1.50
2019-03-17T11:45:09.284Z,1.60
2019-03-17T11:46:09.239Z,1.50
2019-03-17T11:47:09.212Z,1.70
2019-03-17T11:48:09.153Z,1.70
2019-03-17T11:49:09.269Z,1.60
2019-03-17T11:50:09.066Z,1.70
2019-03-17T11:51:09.022Z,1.50
2019-03-17T11:52:08.973Z,1.50
2019-03-17T11:53:08.930Z,1.60
2019-03-17T11:54:09.069Z,1.60
2019-03-17T11:55:08.840Z,1.60
2019-03-17T11:56:08.797Z,1.80
2019-03-17T11:57:08.769Z,1.50
2019-03-17T11:58:08.709Z,1.50
2019-03-17T11:59:08.885Z,1.90
2019-03-17T12:00:08.618Z,1.50
2019-03-17T12:01:08.574Z,1.70
2019-03-17T12:02:08.547Z,1.50
2019-03-17T12:03:08.488Z,1.60
2019-03-17T12:04:08.574Z,1.70
2019-03-17T12:05:08.397Z,1.90
2019-03-17T12:06:08.357Z,1.80
2019-03-17T12:07:08.333Z,1.70
2019-03-17T12:08:08.264Z,1.50
2019-03-17T12:09:08.393Z,1.70
2019-03-17T12:10:08.177Z,1.80
2019-03-17T12:11:08.127Z,1.60
2019-03-17T12:12:08.100Z,1.60
2019-03-17T12:13:08.039Z,1.50
2019-03-17T12:14:09.874Z,1.70
2019-03-17T12:15:07.951Z,2.00
2019-03-17T12:16:07.905Z,1.70
2019-03-17T12:17:07.880Z,1.70
2019-03-17T12:18:07.818Z,1.80
2019-03-17T12:19:07.987Z,1.70
2019-03-17T12:20:07.735Z,1.70
2019-03-17T12:21:07.689Z,1.60
2019-03-17T12:22:09.294Z,1.80
2019-03-17T12:23:07.595Z,1.90
2019-03-17T12:24:07.797Z,1.70
2019-03-17T12:25:07.513Z,1.90
2019-03-17T12:26:07.461Z,1.90
2019-03-17T12:27:07.444Z,1.80
2019-03-17T12:28:07.374Z,1.70
2019-03-17T12:29:07.499Z,1.80
2019-03-17T12:30:07.288Z,1.80
2019-03-17T12:31:07.245Z,1.80
2019-03-17T12:32:07.219Z,1.70
2019-03-17T12:33:07.149Z,1.90
2019-03-17T12:34:07.303Z,1.80
2019-03-17T12:35:07.059Z,1.70
2019-03-17T12:36:07.017Z,1.80
2019-03-17T12:37:06.988Z,1.90
2019-03-17T12:38:06.926Z,1.80
2019-03-17T12:39:07.098Z,1.70
2019-03-17T12:40:06.845Z,1.80
2019-03-17T12:41:06.800Z,1.60
2019-03-17T12:42:06.767Z,1.70
2019-03-17T12:43:06.705Z,1.90
2019-03-17T12:44:07.026Z,1.90
2019-03-17T12:45:06.615Z,1.70
2019-03-17T12:46:06.571Z,1.90
2019-03-17T12:47:06.549Z,1.70
2019-03-17T12:48:06.487Z,1.90
2019-03-17T12:49:06.562Z,1.80
2019-03-17T12:50:06.398Z,1.60
2019-03-17T12:51:06.349Z,1.60
2019-03-17T12:52:06.311Z,1.90
2019-03-17T12:53:07.843Z,1.90
2019-03-17T12:54:06.400Z,1.90
2019-03-17T12:55:06.175Z,1.90
2019-03-17T12:56:06.129Z,1.70
2019-03-17T12:57:06.102Z,2.00
2019-03-17T12:58:06.040Z,1.80
2019-03-17T12:59:06.203Z,2.00
2019-03-17T13:00:05.948Z,1.80
2019-03-17T13:01:05.902Z,2.00
2019-03-17T13:02:05.881Z,2.20
2019-03-17T13:03:05.814Z,1.90
2019-03-17T13:04:06.025Z,2.00
2019-03-17T13:05:05.725Z,1.80
2019-03-17T13:06:05.682Z,2.10
2019-03-17T13:07:05.652Z,1.70
2019-03-17T13:08:05.592Z,1.90
2019-03-17T13:09:05.714Z,2.10
2019-03-17T13:10:14.861Z,2.00
2019-03-17T13:11:05.468Z,1.80
2019-03-17T13:12:05.480Z,2.10
2019-03-17T13:13:05.370Z,2.10
2019-03-17T13:14:06.850Z,1.60
2019-03-17T13:15:05.281Z,2.20
2019-03-17T13:16:05.238Z,2.20
2019-03-17T13:17:05.211Z,2.70
2019-03-17T13:18:05.155Z,2.00
2019-03-17T13:19:05.310Z,2.30
2019-03-17T13:20:05.114Z,2.00
2019-03-17T13:21:05.017Z,2.10
2019-03-17T13:22:04.983Z,2.20
2019-03-17T13:23:04.939Z,1.90
2019-03-17T13:24:05.115Z,2.00
2019-03-17T13:25:04.838Z,2.00
2019-03-17T13:26:04.798Z,1.90
2019-03-17T13:27:04.836Z,2.00
2019-03-17T13:28:04.714Z,2.20
2019-03-17T13:29:04.811Z,2.10
2019-03-17T13:30:04.616Z,2.00
2019-03-17T13:31:04.573Z,2.20
2019-03-17T13:32:04.548Z,2.50
2019-03-17T13:33:04.487Z,2.20
2019-03-17T13:34:04.618Z,2.10
2019-03-17T13:35:04.395Z,2.20
2019-03-17T13:36:04.424Z,2.30
2019-03-17T13:37:04.379Z,2.20
2019-03-17T13:38:04.261Z,1.90
2019-03-17T13:39:04.418Z,2.00
2019-03-17T13:40:04.171Z,2.10
2019-03-17T13:41:04.126Z,2.00
2019-03-17T13:42:04.096Z,2.00
2019-03-17T13:43:04.048Z,2.00
2019-03-17T13:44:04.235Z,2.10
2019-03-17T13:45:03.956Z,2.00
2019-03-17T13:46:03.915Z,2.20
2019-03-17T13:47:03.880Z,2.20
2019-03-17T13:48:03.825Z,1.90
2019-03-17T13:49:03.936Z,2.00
2019-03-17T13:50:03.730Z,1.90
2019-03-17T13:51:03.683Z,2.00
2019-03-17T13:52:03.640Z,2.00
2019-03-17T13:53:03.588Z,2.10
2019-03-17T13:54:03.726Z,2.10
2019-03-17T13:55:03.508Z,2.00
2019-03-17T13:56:03.460Z,2.10
2019-03-17T13:57:03.427Z,1.60
2019-03-17T13:58:03.372Z,2.00
2019-03-17T13:59:06.337Z,2.20
2019-03-17T14:00:03.279Z,2.10
2019-03-17T14:01:03.230Z,2.10
2019-03-17T14:02:03.202Z,2.10
2019-03-17T14:03:03.138Z,2.20
2019-03-17T14:04:03.335Z,2.20
2019-03-17T14:05:03.047Z,2.40
2019-03-17T14:06:03.004Z,2.10
2019-03-17T14:07:02.980Z,2.00
2019-03-17T14:08:02.918Z,2.10
2019-03-17T14:09:03.055Z,1.70
2019-03-17T14:10:13.287Z,2.30
2019-03-17T14:11:02.779Z,2.10
2019-03-17T14:12:02.758Z,2.10
2019-03-17T14:13:02.692Z,2.10
2019-03-17T14:14:02.842Z,2.30
2019-03-17T14:15:02.605Z,2.30
2019-03-17T14:16:02.552Z,2.10
2019-03-17T14:17:02.526Z,2.10
2019-03-17T14:18:02.461Z,2.30
2019-03-17T14:19:02.647Z,2.00
2019-03-17T14:20:02.369Z,2.60